Time;durP1;ratioP1;P1;durP2;ratioP2;P2;SDS_P1;SDS_P2;PMS_P1;PMS_P2;Temp;Humidity;BMP_temperature;BMP_pressure;BME280_temperature;BME280_humidity;BME280_pressure;Samples;Min_cycle;Max_cycle;Signal;HPM_P1;HPM_P2
2023/02/01 00:01:37;;;;;;;;;;;18.40;33.70;;;;;;8364128;28;19913;-44
2023/02/01 00:05:37;;;;;;;;;;;18.40;33.70;;;;;;8363899;28;20294;-43
2023/02/01 00:09:38;;;;;;;;;;;18.40;33.70;;;;;;8363914;28;20457;-44
2023/02/01 00:13:40;;;;;;;;;;;18.30;33.70;;;;;;8363885;28;19917;-45
2023/02/01 00:17:41;;;;;;;;;;;18.30;33.70;;;;;;8363419;28;19920;-45
2023/02/01 00:21:43;;;;;;;;;;;18.30;33.70;;;;;;8363374;28;20304;-45
2023/02/01 00:25:44;;;;;;;;;;;18.20;33.70;;;;;;8364009;28;19917;-44
2023/02/01 00:29:44;;;;;;;;;;;18.20;33.80;;;;;;8363210;28;20452;-45
2023/02/01 00:33:47;;;;;;;;;;;18.20;33.80;;;;;;8363344;28;19917;-44
2023/02/01 00:37:47;;;;;;;;;;;18.20;33.80;;;;;;8363343;28;19921;-45
2023/02/01 00:41:47;;;;;;;;;;;18.10;33.80;;;;;;8362773;28;19970;-45
2023/02/01 00:45:48;;;;;;;;;;;18.10;34.30;;;;;;8363586;28;19916;-45
2023/02/01 00:49:48;;;;;;;;;;;18.10;33.80;;;;;;8363235;28;19921;-45
2023/02/01 00:53:49;;;;;;;;;;;18.10;33.70;;;;;;8362053;28;19917;-45
2023/02/01 00:57:49;;;;;;;;;;;18.10;33.80;;;;;;8363097;28;19929;-44
2023/02/01 01:01:50;;;;;;;;;;;18.10;33.80;;;;;;8362990;28;20000;-45
2023/02/01 01:05:50;;;;;;;;;;;18.10;33.90;;;;;;8362743;28;19917;-45
2023/02/01 01:09:51;;;;;;;;;;;18.10;33.80;;;;;;8362770;28;20037;-44
2023/02/01 01:13:52;;;;;;;;;;;18.10;33.80;;;;;;8362819;28;20262;-45
2023/02/01 01:17:52;;;;;;;;;;;18.10;34.40;;;;;;8362025;28;19964;-45
2023/02/01 01:21:53;;;;;;;;;;;18.10;33.80;;;;;;8362768;28;19917;-45
2023/02/01 01:25:53;;;;;;;;;;;18.10;33.80;;;;;;8362628;28;20358;-45
2023/02/01 01:29:54;;;;;;;;;;;18.10;33.90;;;;;;8362137;28;19939;-45
2023/02/01 01:33:55;;;;;;;;;;;18.10;33.80;;;;;;8367992;28;20370;-45
2023/02/01 01:37:56;;;;;;;;;;;18.10;33.80;;;;;;8368836;28;19925;-44
2023/02/01 01:41:57;;;;;;;;;;;18.10;33.80;;;;;;8368156;28;19935;-45
2023/02/01 01:45:57;;;;;;;;;;;18.10;33.80;;;;;;8369030;28;19919;-45
2023/02/01 01:49:58;;;;;;;;;;;18.10;33.80;;;;;;8368746;28;20370;-44
2023/02/01 01:54:15;;;;;;;;;;;18.10;33.80;;;;;;8367838;28;19924;-45
2023/02/01 01:58:17;;;;;;;;;;;18.10;33.80;;;;;;8367835;28;19925;-46
2023/02/01 02:02:18;;;;;;;;;;;18.10;33.80;;;;;;8367961;28;19920;-44
2023/02/01 02:06:24;;;;;;;;;;;18.10;33.80;;;;;;8367673;28;20004;-45
2023/02/01 02:10:59;;;;;;;;;;;18.00;33.80;;;;;;8366787;28;19917;-45
2023/02/01 02:14:45;;;;;;;;;;;18.00;33.80;;;;;;8367145;28;19948;-45
2023/02/01 02:18:58;;;;;;;;;;;18.00;33.80;;;;;;8367269;28;19975;-46
2023/02/01 02:23:28;;;;;;;;;;;18.00;33.80;;;;;;8367580;28;19964;-46
2023/02/01 02:27:44;;;;;;;;;;;18.00;33.80;;;;;;8349367;28;20439;-45
2023/02/01 02:32:03;;;;;;;;;;;18.10;33.90;;;;;;8367286;28;19913;-45
2023/02/01 02:36:22;;;;;;;;;;;18.00;33.80;;;;;;8366447;28;19955;-46
2023/02/01 02:40:31;;;;;;;;;;;18.00;33.90;;;;;;8366730;28;19923;-45
2023/02/01 02:49:00;;;;;;;;;;;18.00;33.90;;;;;;8366543;28;19970;-45
2023/02/01 03:06:05;;;;;;;;;;;17.90;33.90;;;;;;8365657;28;20014;-44
2023/02/01 03:10:07;;;;;;;;;;;17.80;34.00;;;;;;8366012;28;19921;-45
2023/02/01 03:14:08;;;;;;;;;;;17.90;34.00;;;;;;8365470;28;20358;-46
2023/02/01 03:18:26;;;;;;;;;;;17.90;33.90;;;;;;8365021;28;19929;-45
2023/02/01 03:22:31;;;;;;;;;;;17.90;34.00;;;;;;8365748;28;20400;-44
2023/02/01 03:26:34;;;;;;;;;;;17.80;33.90;;;;;;8365432;28;19947;-45
2023/02/01 03:30:36;;;;;;;;;;;17.80;34.00;;;;;;8364638;28;19971;-44
2023/02/01 03:34:37;;;;;;;;;;;17.80;34.00;;;;;;8364995;28;19913;-46
2023/02/01 03:38:46;;;;;;;;;;;17.80;34.00;;;;;;8364287;28;20357;-44
2023/02/01 03:42:49;;;;;;;;;;;17.80;34.00;;;;;;8364802;28;20003;-44
2023/02/01 03:47:03;;;;;;;;;;;17.80;34.00;;;;;;8363525;28;19917;-46
2023/02/01 03:51:04;;;;;;;;;;;17.70;34.00;;;;;;8364128;28;20011;-45
2023/02/01 03:55:05;;;;;;;;;;;17.70;34.00;;;;;;8363613;28;19920;-45
2023/02/01 03:59:05;;;;;;;;;;;17.80;34.10;;;;;;8364328;28;19924;-46
2023/02/01 04:03:06;;;;;;;;;;;17.80;34.00;;;;;;8363486;28;19917;-46
2023/02/01 04:07:07;;;;;;;;;;;17.80;34.00;;;;;;8364250;28;19974;-45
2023/02/01 04:11:07;;;;;;;;;;;17.80;34.00;;;;;;8363956;28;19995;-44
2023/02/01 04:15:08;;;;;;;;;;;17.80;34.00;;;;;;8363257;28;19925;-44
2023/02/01 04:19:08;;;;;;;;;;;17.80;34.00;;;;;;8363497;28;20015;-44
2023/02/01 04:23:08;;;;;;;;;;;17.80;34.00;;;;;;8363468;28;19999;-44
2023/02/01 04:27:09;;;;;;;;;;;17.80;33.90;;;;;;8363212;28;20364;-45
2023/02/01 04:31:09;;;;;;;;;;;17.80;34.00;;;;;;8363259;28;19952;-45
2023/02/01 04:35:11;;;;;;;;;;;17.80;33.90;;;;;;8363286;28;19928;-45
2023/02/01 04:39:11;;;;;;;;;;;17.80;33.90;;;;;;8362700;28;19924;-45
2023/02/01 04:43:12;;;;;;;;;;;17.90;33.90;;;;;;8363022;28;19921;-45
2023/02/01 04:47:12;;;;;;;;;;;17.90;33.90;;;;;;8363296;28;20429;-45
2023/02/01 04:51:13;;;;;;;;;;;17.90;33.90;;;;;;8362583;28;19920;-45
2023/02/01 04:55:13;;;;;;;;;;;17.90;33.80;;;;;;8363162;28;19932;-45
2023/02/01 04:59:14;;;;;;;;;;;18.00;33.90;;;;;;8363035;28;20011;-46
2023/02/01 05:03:14;;;;;;;;;;;17.90;33.90;;;;;;8362572;28;19935;-45
2023/02/01 05:07:15;;;;;;;;;;;17.90;33.80;;;;;;8365450;28;19916;-44
2023/02/01 05:15:34;;;;;;;;;;;18.00;33.90;;;;;;8369069;28;19971;-45
2023/02/01 05:19:35;;;;;;;;;;;18.00;33.80;;;;;;8369075;28;19920;-45
2023/02/01 05:24:09;;;;;;;;;;;18.10;33.70;;;;;;8368980;28;19947;-44
2023/02/01 05:27:56;;;;;;;;;;;18.20;33.70;;;;;;8368791;28;19959;-46
2023/02/01 05:31:56;;;;;;;;;;;18.20;33.60;;;;;;8368778;28;20358;-44
2023/02/01 05:35:57;;;;;;;;;;;18.30;33.70;;;;;;8368215;28;19964;-46
2023/02/01 05:39:57;;;;;;;;;;;18.40;33.70;;;;;;8368568;28;19923;-45
2023/02/01 05:43:57;;;;;;;;;;;18.40;33.50;;;;;;8368324;28;19917;-45
2023/02/01 05:47:58;;;;;;;;;;;18.50;33.50;;;;;;8368065;28;19917;-45
2023/02/01 05:51:58;;;;;;;;;;;18.50;33.40;;;;;;8368148;28;19923;-45
2023/02/01 05:55:59;;;;;;;;;;;18.60;33.50;;;;;;8368387;28;19925;-45
2023/02/01 05:59:59;;;;;;;;;;;18.50;33.40;;;;;;8367465;28;19917;-45
2023/02/01 06:04:00;;;;;;;;;;;18.60;33.50;;;;;;8367754;28;19925;-44
2023/02/01 06:08:00;;;;;;;;;;;18.60;33.40;;;;;;8367893;28;19913;-44
2023/02/01 06:12:01;;;;;;;;;;;18.60;33.40;;;;;;8367228;28;20366;-45
2023/02/01 06:16:02;;;;;;;;;;;18.70;33.50;;;;;;8367813;28;19932;-45
2023/02/01 06:20:03;;;;;;;;;;;18.70;33.40;;;;;;8367162;28;20354;-44
2023/02/01 06:24:04;;;;;;;;;;;18.80;33.50;;;;;;8367074;28;19965;-45
2023/02/01 06:28:05;;;;;;;;;;;18.80;33.50;;;;;;8367234;28;19927;-46
2023/02/01 06:32:06;;;;;;;;;;;18.80;33.50;;;;;;8367470;28;19924;-45
2023/02/01 06:36:07;;;;;;;;;;;18.80;33.40;;;;;;8366479;28;19925;-45
2023/02/01 06:40:08;;;;;;;;;;;18.80;33.50;;;;;;8366795;28;20266;-45
2023/02/01 06:44:09;;;;;;;;;;;18.90;33.40;;;;;;8366710;28;19919;-45
2023/02/01 06:48:09;;;;;;;;;;;18.90;33.40;;;;;;8366340;28;20354;-45
2023/02/01 06:52:09;;;;;;;;;;;18.90;33.40;;;;;;8366368;28;19917;-45
2023/02/01 06:56:10;;;;;;;;;;;18.90;33.40;;;;;;8366107;28;20340;-46
2023/02/01 07:00:10;;;;;;;;;;;18.90;33.40;;;;;;8365629;28;20004;-46
2023/02/01 07:04:12;;;;;;;;;;;19.00;33.50;;;;;;8365963;28;19917;-45
2023/02/01 07:08:12;;;;;;;;;;;19.00;33.50;;;;;;8366383;28;19913;-45
2023/02/01 07:12:13;;;;;;;;;;;19.00;33.50;;;;;;8366202;28;19921;-45
2023/02/01 07:16:15;;;;;;;;;;;19.00;33.40;;;;;;8365603;28;19975;-45
2023/02/01 07:20:16;;;;;;;;;;;19.10;33.40;;;;;;8365594;28;19923;-45
2023/02/01 07:24:17;;;;;;;;;;;19.10;33.40;;;;;;8364986;28;19953;-44
2023/02/01 07:28:17;;;;;;;;;;;19.10;33.40;;;;;;8364964;28;19913;-46
2023/02/01 07:32:17;;;;;;;;;;;19.10;33.40;;;;;;8364847;28;19996;-45
2023/02/01 07:36:18;;;;;;;;;;;19.10;33.40;;;;;;8364434;28;20302;-44
2023/02/01 07:40:22;;;;;;;;;;;19.10;33.40;;;;;;8365073;28;19923;-45
2023/02/01 07:44:23;;;;;;;;;;;19.20;33.40;;;;;;8364721;28;19959;-45
2023/02/01 07:48:24;;;;;;;;;;;19.20;33.40;;;;;;8364454;28;19920;-44
2023/02/01 07:52:27;;;;;;;;;;;19.20;33.40;;;;;;8364714;28;19924;-45
2023/02/01 07:56:27;;;;;;;;;;;19.20;33.40;;;;;;8364678;28;20361;-45
2023/02/01 08:04:47;;;;;;;;;;;19.20;33.30;;;;;;8349857;28;19967;-44
2023/02/01 08:08:48;;;;;;;;;;;19.20;33.30;;;;;;8363741;28;19913;-44
2023/02/01 08:12:51;;;;;;;;;;;19.30;33.30;;;;;;8364199;28;20297;-45
2023/02/01 08:16:51;;;;;;;;;;;19.30;33.40;;;;;;8364052;28;19947;-47
2023/02/01 08:20:52;;;;;;;;;;;19.30;33.30;;;;;;8363328;28;19942;-44
2023/02/01 08:25:00;;;;;;;;;;;19.30;33.30;;;;;;8363746;28;19927;-44
2023/02/01 08:29:02;;;;;;;;;;;19.20;33.30;;;;;;8363968;28;20382;-44
2023/02/01 08:33:03;;;;;;;;;;;19.20;33.30;;;;;;8362953;28;19917;-44
2023/02/01 08:37:03;;;;;;;;;;;19.20;33.30;;;;;;8363196;28;19952;-45
2023/02/01 08:41:05;;;;;;;;;;;19.10;33.30;;;;;;8362975;28;19924;-45
2023/02/01 08:45:07;;;;;;;;;;;19.10;33.30;;;;;;8362629;28;19960;-45
2023/02/01 08:49:08;;;;;;;;;;;19.10;33.40;;;;;;8363491;28;19913;-44
2023/02/01 08:53:08;;;;;;;;;;;19.00;33.30;;;;;;8362920;28;19917;-45
2023/02/01 08:57:11;;;;;;;;;;;19.00;33.30;;;;;;8362695;28;19994;-44
2023/02/01 09:01:16;;;;;;;;;;;18.90;33.40;;;;;;8363225;28;20365;-44
2023/02/01 09:05:19;;;;;;;;;;;18.90;33.40;;;;;;8362971;28;19916;-44
2023/02/01 09:09:19;;;;;;;;;;;18.90;33.40;;;;;;8362356;28;20362;-45
2023/02/01 09:13:20;;;;;;;;;;;18.90;33.40;;;;;;8362583;28;19917;-45
2023/02/01 09:17:20;;;;;;;;;;;18.90;33.50;;;;;;8362639;28;19944;-44
2023/02/01 09:21:20;;;;;;;;;;;18.80;33.50;;;;;;8362128;28;19948;-44
2023/02/01 09:25:21;;;;;;;;;;;18.80;33.50;;;;;;8362555;28;20374;-47
2023/02/01 09:29:21;;;;;;;;;;;18.80;33.60;;;;;;8362791;28;19917;-44
2023/02/01 09:33:23;;;;;;;;;;;18.70;33.50;;;;;;8361896;28;19916;-45
2023/02/01 09:37:24;;;;;;;;;;;18.70;33.60;;;;;;8362262;28;19929;-44
2023/02/01 09:41:47;;;;;;;;;;;18.70;33.60;;;;;;8362171;28;19920;-45
2023/02/01 09:46:06;;;;;;;;;;;18.60;33.60;;;;;;8362012;28;20362;-44
2023/02/01 09:50:16;;;;;;;;;;;18.60;33.60;;;;;;8362270;28;19920;-44
2023/02/01 09:54:19;;;;;;;;;;;18.60;33.70;;;;;;8366215;28;19916;-44
2023/02/01 09:58:22;;;;;;;;;;;18.60;33.70;;;;;;8368230;28;19932;-43
2023/02/01 10:02:26;;;;;;;;;;;18.60;33.70;;;;;;8367976;28;19919;-44
2023/02/01 10:06:40;;;;;;;;;;;18.50;33.70;;;;;;8367675;28;19959;-44
2023/02/01 10:10:45;;;;;;;;;;;18.50;33.80;;;;;;8368197;28;19917;-44
2023/02/01 10:14:52;;;;;;;;;;;18.50;33.80;;;;;;8367601;28;19920;-43
2023/02/01 10:18:59;;;;;;;;;;;18.50;33.80;;;;;;8367398;28;19924;-45
2023/02/01 10:23:11;;;;;;;;;;;18.50;33.90;;;;;;8367608;28;19979;-45
2023/02/01 10:27:18;;;;;;;;;;;18.40;33.80;;;;;;8366926;28;19924;-45
2023/02/01 10:31:20;;;;;;;;;;;18.40;33.90;;;;;;8367187;28;20388;-45
2023/02/01 10:35:23;;;;;;;;;;;18.40;33.90;;;;;;8367353;28;19916;-44
2023/02/01 10:39:24;;;;;;;;;;;18.40;33.90;;;;;;8366407;28;20413;-43
2023/02/01 10:43:25;;;;;;;;;;;18.40;33.90;;;;;;8366803;28;19924;-45
2023/02/01 10:47:25;;;;;;;;;;;18.40;33.90;;;;;;8366646;28;19916;-44
2023/02/01 10:51:36;;;;;;;;;;;18.30;33.90;;;;;;8365997;28;19932;-45
2023/02/01 10:55:36;;;;;;;;;;;18.30;33.90;;;;;;8366710;28;20363;-44
2023/02/01 10:59:38;;;;;;;;;;;18.30;33.90;;;;;;8365828;28;19917;-42
2023/02/01 11:03:40;;;;;;;;;;;18.30;34.00;;;;;;8364757;28;19924;-46
2023/02/01 11:07:46;;;;;;;;;;;18.30;34.00;;;;;;8366392;28;20328;-45
2023/02/01 11:11:46;;;;;;;;;;;18.30;34.00;;;;;;8356918;28;19921;-45
2023/02/01 11:15:54;;;;;;;;;;;18.20;34.00;;;;;;8365656;28;19959;-45
2023/02/01 11:19:58;;;;;;;;;;;18.30;34.00;;;;;;8365729;28;19920;-45
2023/02/01 11:24:08;;;;;;;;;;;18.20;34.00;;;;;;8365074;28;19917;-45
2023/02/01 11:28:09;;;;;;;;;;;18.30;34.00;;;;;;8365175;28;19916;-44
2023/02/01 11:32:11;;;;;;;;;;;18.20;34.00;;;;;;8365253;28;19923;-44
2023/02/01 11:36:14;;;;;;;;;;;18.20;34.00;;;;;;8364503;28;20664;-45
2023/02/01 11:40:17;;;;;;;;;;;18.20;34.00;;;;;;8365101;28;19917;-47
2023/02/01 11:44:37;;;;;;;;;;;18.20;34.00;;;;;;8364787;28;19995;-45
2023/02/01 11:48:38;;;;;;;;;;;18.20;34.10;;;;;;8364304;28;19920;-45
2023/02/01 11:52:49;;;;;;;;;;;18.20;34.00;;;;;;8364515;28;20365;-44
2023/02/01 11:56:54;;;;;;;;;;;18.20;34.10;;;;;;8364378;28;19925;-46
2023/02/01 12:00:57;;;;;;;;;;;18.20;34.10;;;;;;8364748;28;19948;-45
2023/02/01 12:05:17;;;;;;;;;;;18.20;34.00;;;;;;8364212;28;20325;-44
2023/02/01 12:09:26;;;;;;;;;;;18.20;34.00;;;;;;8363640;28;19924;-44
2023/02/01 12:13:38;;;;;;;;;;;18.20;34.10;;;;;;8363909;28;19916;-44
2023/02/01 12:17:56;;;;;;;;;;;18.10;34.00;;;;;;8363018;28;19932;-43
2023/02/01 12:22:12;;;;;;;;;;;18.10;34.00;;;;;;8363716;28;19916;-43
2023/02/01 12:26:33;;;;;;;;;;;18.10;34.10;;;;;;8363693;28;19960;-43
2023/02/01 12:30:33;;;;;;;;;;;18.10;34.00;;;;;;8322313;28;19916;-44
2023/02/01 12:34:46;;;;;;;;;;;18.10;34.00;;;;;;8363302;28;19921;-44
2023/02/01 12:38:49;;;;;;;;;;;18.10;34.00;;;;;;8363260;28;19933;-46
2023/02/01 12:42:59;;;;;;;;;;;18.10;34.10;;;;;;8363173;28;19917;-44
2023/02/01 12:47:19;;;;;;;;;;;18.10;34.10;;;;;;8363184;28;19962;-44
2023/02/01 12:51:23;;;;;;;;;;;18.10;34.10;;;;;;8362148;28;19913;-44
2023/02/01 12:55:24;;;;;;;;;;;18.00;34.10;;;;;;8363386;28;19921;-45
2023/02/01 12:59:27;;;;;;;;;;;18.10;34.10;;;;;;8363180;28;19916;-46
2023/02/01 13:03:39;;;;;;;;;;;18.10;34.10;;;;;;8362599;28;20431;-44
2023/02/01 13:07:46;;;;;;;;;;;18.10;34.10;;;;;;8362893;28;19917;-45
2023/02/01 13:11:47;;;;;;;;;;;18.10;34.10;;;;;;8362212;28;19920;-46
2023/02/01 13:16:13;;;;;;;;;;;18.00;34.10;;;;;;8363270;28;19921;-46
2023/02/01 13:20:17;;;;;;;;;;;18.00;34.00;;;;;;8362859;28;20332;-45
2023/02/01 13:24:26;;;;;;;;;;;18.00;34.10;;;;;;8362244;28;20282;-48
2023/02/01 13:28:27;;;;;;;;;;;18.00;34.00;;;;;;8366080;28;19917;-45
2023/02/01 13:32:41;;;;;;;;;;;18.00;34.60;;;;;;8369073;28;19917;-49
2023/02/01 13:36:47;;;;;;;;;;;18.00;34.10;;;;;;8368506;28;20435;-45
2023/02/01 13:41:03;;;;;;;;;;;18.00;34.10;;;;;;8369109;28;19994;-49
2023/02/01 13:45:12;;;;;;;;;;;17.90;34.10;;;;;;8368182;28;19952;-46
2023/02/01 13:49:24;;;;;;;;;;;18.00;34.10;;;;;;8368767;28;20396;-45
2023/02/01 13:53:33;;;;;;;;;;;18.00;34.00;;;;;;8368327;28;19947;-46
2023/02/01 13:57:34;;;;;;;;;;;18.00;34.10;;;;;;8368075;28;19928;-44
2023/02/01 14:01:35;;;;;;;;;;;18.00;34.10;;;;;;8368584;28;20419;-45
2023/02/01 14:05:38;;;;;;;;;;;18.00;34.10;;;;;;8367932;28;19917;-46
2023/02/01 14:09:39;;;;;;;;;;;18.00;34.10;;;;;;8366325;28;19916;-45
2023/02/01 14:13:40;;;;;;;;;;;18.00;34.10;;;;;;8367732;28;19917;-46
2023/02/01 14:17:41;;;;;;;;;;;18.00;34.10;;;;;;8367020;28;19952;-45
2023/02/01 14:21:47;;;;;;;;;;;18.00;34.10;;;;;;8367547;28;20324;-45
2023/02/01 14:25:59;;;;;;;;;;;18.00;34.10;;;;;;8367310;28;19924;-47
2023/02/01 14:30:01;;;;;;;;;;;17.90;34.10;;;;;;8366735;28;19971;-45
2023/02/01 14:34:11;;;;;;;;;;;17.90;34.00;;;;;;8367187;28;19917;-45
2023/02/01 14:38:12;;;;;;;;;;;17.90;34.00;;;;;;8366688;28;19929;-45
2023/02/01 14:42:24;;;;;;;;;;;17.90;34.00;;;;;;8366377;28;20281;-44
2023/02/01 14:46:43;;;;;;;;;;;17.90;34.00;;;;;;8367087;28;20005;-45
2023/02/01 14:50:46;;;;;;;;;;;17.90;34.00;;;;;;8365933;28;19939;-44
2023/02/01 14:54:49;;;;;;;;;;;17.90;34.00;;;;;;8366420;28;19917;-44
2023/02/01 14:58:55;;;;;;;;;;;17.90;34.00;;;;;;8366214;28;19971;-44
2023/02/01 15:03:15;;;;;;;;;;;18.00;34.00;;;;;;8365777;28;19924;-45
2023/02/01 15:07:16;;;;;;;;;;;18.00;33.90;;;;;;8373089;28;20382;-46
2023/02/01 15:11:16;;;;;;;;;;;18.00;33.80;;;;;;8366119;28;19917;-45
2023/02/01 15:15:19;;;;;;;;;;;18.10;33.90;;;;;;8365130;28;19971;-45
2023/02/01 15:19:24;;;;;;;;;;;18.10;33.90;;;;;;8365652;28;19921;-45
2023/02/01 15:23:24;;;;;;;;;;;18.10;33.80;;;;;;8365382;28;20394;-45
2023/02/01 15:27:26;;;;;;;;;;;18.10;33.70;;;;;;8365012;28;20007;-45
2023/02/01 15:31:33;;;;;;;;;;;18.10;33.70;;;;;;8365547;28;19919;-45
2023/02/01 15:35:36;;;;;;;;;;;18.10;33.70;;;;;;8364957;28;20313;-45
2023/02/01 15:39:37;;;;;;;;;;;18.10;33.70;;;;;;8364558;28;19940;-46
2023/02/01 15:43:46;;;;;;;;;;;18.10;33.80;;;;;;8364606;28;19917;-46
2023/02/01 15:47:48;;;;;;;;;;;18.10;33.80;;;;;;8364207;28;19942;-46
2023/02/01 15:51:49;;;;;;;;;;;18.10;33.80;;;;;;8363877;28;19924;-47
2023/02/01 15:55:54;;;;;;;;;;;18.10;33.80;;;;;;8364192;28;19925;-45
2023/02/01 15:59:55;;;;;;;;;;;18.00;33.80;;;;;;8363445;28;19966;-47
2023/02/01 16:04:10;;;;;;;;;;;18.00;33.80;;;;;;8363954;28;19924;-46
2023/02/01 16:08:17;;;;;;;;;;;18.10;33.80;;;;;;8364000;28;20019;-47
2023/02/01 16:12:46;;;;;;;;;;;18.00;33.90;;;;;;8363530;28;19987;-49
2023/02/01 16:16:47;;;;;;;;;;;18.10;33.90;;;;;;8346900;28;19967;-44
2023/02/01 16:20:48;;;;;;;;;;;18.10;33.80;;;;;;8337536;28;20370;-42
2023/02/01 16:24:48;;;;;;;;;;;18.10;33.50;;;;;;8340998;28;19917;-46
2023/02/01 16:28:49;;;;;;;;;;;18.10;33.60;;;;;;8359263;28;19923;-46
2023/02/01 16:32:54;;;;;;;;;;;18.20;33.60;;;;;;8360062;28;20397;-45
2023/02/01 16:36:56;;;;;;;;;;;18.30;33.50;;;;;;8361828;28;19958;-45
2023/02/01 16:40:59;;;;;;;;;;;18.40;33.40;;;;;;8363242;28;19924;-47
2023/02/01 16:44:59;;;;;;;;;;;18.40;33.30;;;;;;8362624;28;20274;-45
2023/02/01 16:49:00;;;;;;;;;;;18.50;33.30;;;;;;8362785;28;19916;-45
2023/02/01 16:53:01;;;;;;;;;;;18.50;33.30;;;;;;8362876;28;19917;-45
2023/02/01 16:57:01;;;;;;;;;;;18.50;33.30;;;;;;8362819;28;19994;-45
2023/02/01 17:01:02;;;;;;;;;;;18.60;33.40;;;;;;8363840;28;19917;-44
2023/02/01 17:05:02;;;;;;;;;;;18.60;33.30;;;;;;8361609;28;19949;-45
2023/02/01 17:09:03;;;;;;;;;;;18.70;33.30;;;;;;8358940;28;19924;-43
2023/02/01 17:13:04;;;;;;;;;;;18.70;33.30;;;;;;8363902;28;19917;-44
2023/02/01 17:17:04;;;;;;;;;;;18.80;33.40;;;;;;8350542;28;19925;-45
2023/02/01 17:21:05;;;;;;;;;;;18.80;33.40;;;;;;8374681;28;20416;-44
2023/02/01 17:25:07;;;;;;;;;;;18.80;33.40;;;;;;8357540;28;19917;-46
2023/02/01 17:29:08;;;;;;;;;;;18.80;33.40;;;;;;8363664;28;20336;-45
2023/02/01 17:33:21;;;;;;;;;;;18.80;33.30;;;;;;8367737;28;19917;-45
2023/02/01 17:37:24;;;;;;;;;;;18.90;33.30;;;;;;8367198;28;19931;-44
2023/02/01 17:41:24;;;;;;;;;;;18.90;33.30;;;;;;8370805;28;20008;-47
2023/02/01 17:45:39;;;;;;;;;;;18.90;33.40;;;;;;8367965;28;19920;-48
2023/02/01 17:49:39;;;;;;;;;;;18.90;33.30;;;;;;8358329;28;20374;-45
2023/02/01 17:53:40;;;;;;;;;;;19.00;33.30;;;;;;8366363;28;19913;-46
2023/02/01 17:57:40;;;;;;;;;;;19.00;33.30;;;;;;8365321;28;19975;-46
2023/02/01 18:01:41;;;;;;;;;;;19.00;33.30;;;;;;8365481;28;19916;-45
2023/02/01 18:05:43;;;;;;;;;;;19.00;33.20;;;;;;8365598;28;20309;-46
2023/02/01 18:09:43;;;;;;;;;;;19.10;33.30;;;;;;8358432;28;19925;-47
2023/02/01 18:13:44;;;;;;;;;;;19.10;33.20;;;;;;8349818;28;20000;-44
2023/02/01 18:17:45;;;;;;;;;;;19.10;33.30;;;;;;8367173;28;20404;-48
2023/02/01 18:21:46;;;;;;;;;;;19.10;33.20;;;;;;8366534;28;19917;-48
2023/02/01 18:25:46;;;;;;;;;;;19.10;33.20;;;;;;8366834;28;19928;-47
2023/02/01 18:29:47;;;;;;;;;;;19.20;33.20;;;;;;8358341;28;20027;-46
2023/02/01 18:33:48;;;;;;;;;;;19.20;33.20;;;;;;8340284;28;19971;-47
2023/02/01 18:37:49;;;;;;;;;;;19.20;33.10;;;;;;8362242;28;19925;-46
2023/02/01 18:41:50;;;;;;;;;;;19.20;33.20;;;;;;8366235;28;19920;-46
2023/02/01 18:45:51;;;;;;;;;;;19.30;33.20;;;;;;8365080;28;19924;-46
2023/02/01 18:49:51;;;;;;;;;;;19.30;33.20;;;;;;8343391;28;20338;-44
2023/02/01 18:53:52;;;;;;;;;;;19.30;33.20;;;;;;8356479;28;20055;-45
2023/02/01 18:57:52;;;;;;;;;;;19.30;33.10;;;;;;8339141;28;19995;-46
2023/02/01 19:01:53;;;;;;;;;;;19.30;33.10;;;;;;8357217;28;19917;-44
2023/02/01 19:05:54;;;;;;;;;;;19.30;33.10;;;;;;8365628;28;19971;-45
2023/02/01 19:09:55;;;;;;;;;;;19.40;33.20;;;;;;8364854;28;19921;-48
2023/02/01 19:13:55;;;;;;;;;;;19.40;33.20;;;;;;8365894;28;19913;-45
2023/02/01 19:17:55;;;;;;;;;;;19.40;33.30;;;;;;8355783;28;19925;-45
2023/02/01 19:21:56;;;;;;;;;;;19.40;33.20;;;;;;8363776;28;19923;-46
2023/02/01 19:25:56;;;;;;;;;;;19.40;33.20;;;;;;8362564;28;19916;-45
2023/02/01 19:29:57;;;;;;;;;;;19.40;33.10;;;;;;8359851;28;19933;-45
2023/02/01 19:33:57;;;;;;;;;;;19.50;33.20;;;;;;8332501;28;20351;-45
2023/02/01 19:37:58;;;;;;;;;;;19.50;33.20;;;;;;8362027;28;19929;-44
2023/02/01 19:41:58;;;;;;;;;;;19.50;33.20;;;;;;8357757;28;19940;-45
2023/02/01 19:46:01;;;;;;;;;;;19.50;33.20;;;;;;8363240;28;19962;-45
2023/02/01 19:50:05;;;;;;;;;;;19.50;33.10;;;;;;8364977;28;19917;-45
2023/02/01 19:54:07;;;;;;;;;;;19.60;33.20;;;;;;8363108;28;19917;-46
2023/02/01 19:58:08;;;;;;;;;;;19.60;33.20;;;;;;8347835;28;19931;-46
2023/02/01 20:02:14;;;;;;;;;;;19.60;33.20;;;;;;8338404;28;19917;-48
2023/02/01 20:06:15;;;;;;;;;;;19.60;33.20;;;;;;8347226;28;19962;-47
2023/02/01 20:10:15;;;;;;;;;;;19.60;33.20;;;;;;8338990;28;20004;-46
2023/02/01 20:14:16;;;;;;;;;;;19.60;33.20;;;;;;8362839;28;19923;-45
2023/02/01 20:18:17;;;;;;;;;;;19.60;33.10;;;;;;8363052;28;19947;-46
2023/02/01 20:22:18;;;;;;;;;;;19.70;33.20;;;;;;8363822;28;19917;-47
2023/02/01 20:26:22;;;;;;;;;;;19.70;33.10;;;;;;8360846;28;19916;-45
2023/02/01 20:30:23;;;;;;;;;;;19.70;33.20;;;;;;8353358;28;19924;-45
2023/02/01 20:34:23;;;;;;;;;;;19.70;33.10;;;;;;8364003;28;19952;-46
2023/02/01 20:38:24;;;;;;;;;;;19.70;33.10;;;;;;8362818;28;19932;-45
2023/02/01 20:42:24;;;;;;;;;;;19.80;33.10;;;;;;8362813;28;20031;-45
2023/02/01 20:46:25;;;;;;;;;;;19.80;33.20;;;;;;8363246;28;19936;-45
2023/02/01 20:50:25;;;;;;;;;;;19.80;33.10;;;;;;8363215;28;19913;-45
2023/02/01 20:54:26;;;;;;;;;;;19.80;33.10;;;;;;8362788;28;19921;-46
2023/02/01 20:58:26;;;;;;;;;;;19.80;33.10;;;;;;8363100;28;19947;-46
2023/02/01 21:02:28;;;;;;;;;;;19.80;33.10;;;;;;8362359;28;20115;-45
2023/02/01 21:06:29;;;;;;;;;;;19.80;33.10;;;;;;8362568;28;20362;-45
2023/02/01 21:10:29;;;;;;;;;;;19.80;33.10;;;;;;8362833;28;19917;-45
2023/02/01 21:14:30;;;;;;;;;;;19.80;33.10;;;;;;8363083;28;19919;-45
2023/02/01 21:18:30;;;;;;;;;;;19.80;33.10;;;;;;8362387;28;20385;-46
2023/02/01 21:22:31;;;;;;;;;;;19.90;33.10;;;;;;8362732;28;19923;-46
2023/02/01 21:26:39;;;;;;;;;;;19.90;33.10;;;;;;8363007;28;20358;-45
2023/02/01 21:30:40;;;;;;;;;;;19.80;33.00;;;;;;8362820;28;19917;-45
2023/02/01 21:34:40;;;;;;;;;;;19.90;33.00;;;;;;8362721;28;19913;-46
2023/02/01 21:38:41;;;;;;;;;;;19.80;33.00;;;;;;8362186;28;19924;-45
2023/02/01 21:42:44;;;;;;;;;;;19.80;33.00;;;;;;8362313;28;19966;-46
2023/02/01 21:46:44;;;;;;;;;;;19.70;33.00;;;;;;8362388;28;20271;-47
2023/02/01 21:50:45;;;;;;;;;;;19.70;33.00;;;;;;8367117;28;19921;-45
2023/02/01 21:54:45;;;;;;;;;;;19.70;33.00;;;;;;8368792;28;19917;-46
2023/02/01 21:58:46;;;;;;;;;;;19.70;33.00;;;;;;8368081;28;19963;-45
2023/02/01 22:02:46;;;;;;;;;;;19.60;33.00;;;;;;8367740;28;20374;-46
2023/02/01 22:06:47;;;;;;;;;;;19.60;33.00;;;;;;8367952;28;19955;-45
2023/02/01 22:10:47;;;;;;;;;;;19.60;33.10;;;;;;8368040;28;19956;-46
2023/02/01 22:14:48;;;;;;;;;;;19.50;33.10;;;;;;8367594;28;19912;-46
2023/02/01 22:18:49;;;;;;;;;;;19.50;33.10;;;;;;8367815;28;19979;-46
2023/02/01 22:22:50;;;;;;;;;;;19.40;33.20;;;;;;8367638;28;20378;-47
2023/02/01 22:26:50;;;;;;;;;;;19.40;33.20;;;;;;8367107;28;19944;-46
2023/02/01 22:30:50;;;;;;;;;;;19.30;33.30;;;;;;8367369;28;19917;-46
2023/02/01 22:34:51;;;;;;;;;;;19.30;33.30;;;;;;8367446;28;19913;-48
2023/02/01 22:38:51;;;;;;;;;;;19.30;33.30;;;;;;8366401;28;19925;-46
2023/02/01 22:42:52;;;;;;;;;;;19.30;33.40;;;;;;8366867;28;19924;-45
2023/02/01 22:46:52;;;;;;;;;;;19.20;33.30;;;;;;8366975;28;19917;-46
2023/02/01 22:50:59;;;;;;;;;;;19.30;33.40;;;;;;8366288;28;19923;-45
2023/02/01 22:54:59;;;;;;;;;;;19.20;33.40;;;;;;8366960;28;20003;-45
2023/02/01 22:59:01;;;;;;;;;;;19.10;33.40;;;;;;8366061;28;19932;-46
2023/02/01 23:03:01;;;;;;;;;;;19.10;33.40;;;;;;8365009;28;20369;-45
2023/02/01 23:07:02;;;;;;;;;;;19.10;33.50;;;;;;8365170;28;20054;-46
2023/02/01 23:11:04;;;;;;;;;;;19.00;33.60;;;;;;8366281;28;19916;-46
2023/02/01 23:15:05;;;;;;;;;;;19.00;33.60;;;;;;8365600;28;19917;-47
2023/02/01 23:19:05;;;;;;;;;;;19.00;33.70;;;;;;8366055;28;19998;-46
2023/02/01 23:23:06;;;;;;;;;;;18.90;33.60;;;;;;8365684;28;19917;-45
2023/02/01 23:27:06;;;;;;;;;;;18.90;33.60;;;;;;8365056;28;20369;-46
2023/02/01 23:31:08;;;;;;;;;;;18.90;33.70;;;;;;8365437;28;19917;-46
2023/02/01 23:35:08;;;;;;;;;;;18.90;33.70;;;;;;8365602;28;19913;-46
2023/02/01 23:39:09;;;;;;;;;;;18.90;33.70;;;;;;8364584;28;19931;-47
2023/02/01 23:47:28;;;;;;;;;;;18.80;33.70;;;;;;8366285;28;19923;-45
2023/02/01 23:51:29;;;;;;;;;;;18.80;33.80;;;;;;8364322;28;19917;-46
2023/02/01 23:55:29;;;;;;;;;;;18.80;33.80;;;;;;8364969;28;19927;-47
2023/02/01 23:59:30;;;;;;;;;;;18.70;33.80;;;;;;8364622;28;20414;-46
